Aérodrome :
LOGIN :

S'inscrire | Disclaimer

   EN    FR    IT 

 










Légende :    VFR   VFR Marginal   IFR   IFR Intensif   IFR Très Intensif
Visi : 
Plafond : 
>= 8 km
>= 3000ft
5 à 8 km
1000 à 3000 ft
1500m à 5 km
500 à 1000 ft
800 à 1500m
200 à 500 ft
< 800m
< 200 ft
Symboles :   Orages  Brouillard  Fortes neiges  Fortes précipitations  Vent > 20 kt
SIGMETs :   Divers  Orages  Givrage  Turbulence  Onde Orograph.  Cendres Volcan.






- Altitude de l'aérodrome : 408 ft
- Code IATA : FKB


EDSB - Karlsruhe Baden Baden

DERNIER METAR :
  • 250450Z 21004KT CAVOK 10/10 Q1018

METARs EXPIRÉS :
  • 250420Z 18002KT CAVOK 09/09 Q1018
  • 250350Z 17002KT 9000 BCFG FEW002 09/09 Q1018
  • 250320Z 00000KT 9000 BCFG FEW002 10/09 Q1018
  • 250250Z 09003KT CAVOK 09/09 Q1018
  • 250220Z AUTO VRB02KT 9999 4600 NCD 10/10 Q1018
  • 250150Z AUTO 18002KT CAVOK 10/10 Q1018
  • 250120Z AUTO 22003KT 9999 FEW003/// 11/11 Q1018
  • 250050Z AUTO VRB02KT 6000 FEW087/// 11/11 Q1018
  • 250020Z AUTO VRB02KT 9999 SCT085/// 12/12 Q1018

TAF TAF EDSB
Valide du 25 à 00h jusqu'au 26 à 00h UTC


242300Z 2500/2524 21004KT CAVOK
PROB30
TEMPO 2502/2507 3000 BR BKN006
PROB30
TEMPO 2512/2518 SHRA BKN030CB



MET'MAP, la Météo Aéronautique d'un coup d'oeil ! - Copyright ORBIFLY Décembre 2007 - Disclaimer

ORBIFLY MET'MAP TEAM :

Programmation & Développement : Alexandra Zaïnal
Sur une idée originale de : Baudouin d'Aumeries
Soutien technique & logistique : Manuel Goepfert
Assistance : Marc-Olivier Méhu




SOURCES & CREDITS :

   NOAA